createdAt,value
2022-11-21T00:00:56.748Z,16.70
2022-11-21T00:01:56.782Z,16.50
2022-11-21T00:02:56.769Z,17.00
2022-11-21T00:03:56.654Z,16.70
2022-11-21T00:04:56.950Z,16.60
2022-11-21T00:05:56.682Z,16.90
2022-11-21T00:06:56.653Z,16.60
2022-11-21T00:07:56.620Z,16.50
2022-11-21T00:08:56.697Z,16.20
2022-11-21T00:09:56.686Z,16.00
2022-11-21T00:10:56.616Z,16.30
2022-11-21T00:11:56.635Z,16.20
2022-11-21T00:12:56.567Z,15.70
2022-11-21T00:13:56.595Z,14.90
2022-11-21T00:14:56.568Z,15.40
2022-11-21T00:15:56.583Z,15.60
2022-11-21T00:16:57.658Z,15.30
2022-11-21T00:17:56.548Z,15.50
2022-11-21T00:18:56.531Z,15.60
2022-11-21T00:19:56.505Z,15.90
2022-11-21T00:20:56.479Z,15.90
2022-11-21T00:21:56.492Z,16.30
2022-11-21T00:22:56.536Z,16.50
2022-11-21T00:23:56.518Z,16.60
2022-11-21T00:24:56.423Z,17.50
2022-11-21T00:25:57.244Z,17.30
2022-11-21T00:26:56.398Z,17.00
2022-11-21T00:27:56.434Z,17.30
2022-11-21T00:28:56.515Z,17.30
2022-11-21T00:29:56.392Z,15.80
2022-11-21T00:30:56.358Z,15.90
2022-11-21T00:31:57.203Z,16.70
2022-11-21T00:32:56.442Z,15.70
2022-11-21T00:33:56.374Z,14.80
2022-11-21T00:34:56.317Z,15.60
2022-11-21T00:35:56.326Z,15.50
2022-11-21T00:36:56.360Z,15.10
2022-11-21T00:37:56.303Z,14.90
2022-11-21T00:38:56.335Z,15.10
2022-11-21T00:39:56.290Z,15.20
2022-11-21T00:40:56.247Z,15.00
2022-11-21T00:41:56.275Z,15.30
2022-11-21T00:42:56.257Z,15.30
2022-11-21T00:43:56.327Z,15.50
2022-11-21T00:44:56.258Z,15.00
2022-11-21T00:45:56.336Z,14.90
2022-11-21T00:46:56.259Z,14.30
2022-11-21T00:47:56.188Z,15.00
2022-11-21T00:48:56.244Z,15.60
2022-11-21T00:49:56.735Z,14.80
2022-11-21T00:50:56.193Z,15.20
2022-11-21T00:51:56.131Z,15.10
2022-11-21T00:52:56.142Z,14.90
2022-11-21T00:53:56.127Z,14.80
2022-11-21T00:54:56.100Z,15.00
2022-11-21T00:55:56.142Z,14.70
2022-11-21T00:56:56.071Z,15.60
2022-11-21T00:57:56.151Z,14.50
2022-11-21T00:58:56.152Z,14.40
2022-11-21T00:59:56.063Z,14.50
2022-11-21T01:00:56.225Z,14.50
2022-11-21T01:01:56.054Z,14.50
2022-11-21T01:02:56.089Z,14.00
2022-11-21T01:03:56.010Z,14.00
2022-11-21T01:04:56.042Z,13.40
2022-11-21T01:05:56.002Z,13.50
2022-11-21T01:06:56.008Z,13.90
2022-11-21T01:07:55.969Z,13.50
2022-11-21T01:08:56.009Z,14.20
2022-11-21T01:09:56.041Z,14.60
2022-11-21T01:10:55.937Z,13.80
2022-11-21T01:11:55.925Z,14.60
2022-11-21T01:12:55.897Z,14.40
2022-11-21T01:13:55.894Z,15.80
2022-11-21T01:14:55.879Z,15.30
2022-11-21T01:15:55.938Z,15.70
2022-11-21T01:16:55.855Z,15.80
2022-11-21T01:17:55.855Z,14.80
2022-11-21T01:18:55.831Z,15.60
2022-11-21T01:19:55.857Z,15.60
2022-11-21T01:20:55.803Z,16.00
2022-11-21T01:21:55.909Z,14.80
2022-11-21T01:22:55.795Z,16.30
2022-11-21T01:23:55.793Z,16.40
2022-11-21T01:24:55.764Z,16.10
2022-11-21T01:25:55.814Z,16.10
2022-11-21T01:26:55.791Z,16.40
2022-11-21T01:27:55.741Z,14.60
2022-11-21T01:28:55.758Z,14.70
2022-11-21T01:29:55.777Z,14.10
2022-11-21T01:30:55.708Z,14.90
2022-11-21T01:31:55.716Z,14.00
2022-11-21T01:32:55.709Z,13.90
2022-11-21T01:33:55.674Z,14.00
2022-11-21T01:34:55.663Z,13.70
2022-11-21T01:35:55.704Z,13.00
2022-11-21T01:36:55.636Z,12.80
2022-11-21T01:37:55.643Z,13.50
2022-11-21T01:38:55.622Z,13.30
2022-11-21T01:39:55.621Z,14.20
2022-11-21T01:40:55.599Z,14.60
2022-11-21T01:41:55.641Z,14.50
2022-11-21T01:42:55.622Z,14.30
2022-11-21T01:43:55.564Z,15.40
2022-11-21T01:44:55.537Z,15.90
2022-11-21T01:45:55.603Z,15.90
2022-11-21T01:46:55.540Z,15.90
2022-11-21T01:47:55.534Z,15.40
2022-11-21T01:48:55.493Z,15.20
2022-11-21T01:49:55.494Z,15.30
2022-11-21T01:50:55.534Z,14.80
2022-11-21T01:51:55.477Z,14.60
2022-11-21T01:52:55.476Z,15.60
2022-11-21T01:53:55.491Z,16.00
2022-11-21T01:54:55.473Z,15.70
2022-11-21T01:55:55.561Z,16.10
2022-11-21T01:56:55.427Z,16.20
2022-11-21T01:57:55.419Z,16.10
2022-11-21T01:58:55.412Z,16.90
2022-11-21T01:59:55.383Z,16.10
2022-11-21T02:00:55.396Z,16.30
2022-11-21T02:01:55.407Z,17.10
2022-11-21T02:02:55.352Z,16.20
2022-11-21T02:03:55.403Z,16.70
2022-11-21T02:04:55.326Z,16.60
2022-11-21T02:05:55.332Z,16.40
2022-11-21T02:06:55.367Z,16.80
2022-11-21T02:07:55.302Z,16.60
2022-11-21T02:08:55.271Z,16.20
2022-11-21T02:09:55.276Z,16.50
2022-11-21T02:10:55.258Z,16.20
2022-11-21T02:11:55.282Z,15.80
2022-11-21T02:12:55.263Z,16.00
2022-11-21T02:13:55.238Z,15.80
2022-11-21T02:14:55.211Z,15.80
2022-11-21T02:15:55.260Z,16.40
2022-11-21T02:16:55.239Z,16.00
2022-11-21T02:17:55.198Z,16.30
2022-11-21T02:18:55.167Z,16.60
2022-11-21T02:19:55.739Z,17.10
2022-11-21T02:20:55.144Z,17.10
2022-11-21T02:21:55.228Z,17.20
2022-11-21T02:22:55.128Z,17.20
2022-11-21T02:24:00.062Z,17.10
2022-11-21T02:24:55.103Z,17.00
2022-11-21T02:25:55.101Z,17.20
2022-11-21T02:26:55.113Z,17.60
2022-11-21T02:27:55.081Z,17.30
2022-11-21T02:28:55.064Z,16.50
2022-11-21T02:29:55.055Z,16.20
2022-11-21T02:30:55.182Z,16.40
2022-11-21T02:31:55.061Z,16.70
2022-11-21T02:32:55.009Z,17.00
2022-11-21T02:33:55.170Z,17.10
2022-11-21T02:34:54.991Z,16.40
2022-11-21T02:35:55.050Z,16.40
2022-11-21T02:36:55.015Z,16.90
2022-11-21T02:37:54.978Z,16.10
2022-11-21T02:38:54.942Z,17.10
2022-11-21T02:39:54.958Z,16.30
2022-11-21T02:40:54.953Z,16.60
2022-11-21T02:41:54.969Z,16.50
2022-11-21T02:42:54.912Z,16.60
2022-11-21T02:43:54.928Z,16.60
2022-11-21T02:44:54.911Z,16.90
2022-11-21T02:45:54.917Z,18.80
2022-11-21T02:46:54.851Z,17.10
2022-11-21T02:47:58.137Z,17.50
2022-11-21T02:48:55.591Z,17.50
2022-11-21T02:49:54.831Z,17.00
2022-11-21T02:50:54.815Z,17.50
2022-11-21T02:51:54.815Z,17.80
2022-11-21T02:52:54.795Z,18.00
2022-11-21T02:53:54.855Z,17.90
2022-11-21T02:54:54.772Z,17.90
2022-11-21T02:55:54.825Z,17.60
2022-11-21T02:56:54.741Z,18.00
2022-11-21T02:57:54.772Z,18.30
2022-11-21T02:58:54.759Z,17.90
2022-11-21T02:59:54.726Z,18.20
2022-11-21T03:00:54.738Z,17.90
2022-11-21T03:01:55.754Z,18.10
2022-11-21T03:02:54.697Z,17.20
2022-11-21T03:03:54.773Z,17.90
2022-11-21T03:04:55.664Z,17.90
2022-11-21T03:05:54.723Z,17.90
2022-11-21T03:06:54.700Z,18.60
2022-11-21T03:07:54.640Z,18.60
2022-11-21T03:08:54.661Z,18.00
2022-11-21T03:09:54.669Z,18.40
2022-11-21T03:10:54.586Z,17.60
2022-11-21T03:11:54.641Z,17.10
2022-11-21T03:12:54.586Z,18.30
2022-11-21T03:13:54.592Z,16.40
2022-11-21T03:14:54.585Z,16.50
2022-11-21T03:15:54.641Z,15.80
2022-11-21T03:16:54.556Z,16.10
2022-11-21T03:17:54.530Z,15.20
2022-11-21T03:18:54.501Z,15.00
2022-11-21T03:19:54.546Z,14.90
2022-11-21T03:20:54.523Z,15.10
2022-11-21T03:21:54.506Z,16.50
2022-11-21T03:22:54.458Z,15.00
2022-11-21T03:23:54.459Z,14.70
2022-11-21T03:24:54.496Z,14.60
2022-11-21T03:25:54.490Z,13.90
2022-11-21T03:26:54.412Z,14.80
2022-11-21T03:27:54.418Z,13.90
2022-11-21T03:28:54.411Z,14.50
2022-11-21T03:29:54.442Z,14.60
2022-11-21T03:30:54.438Z,13.90
2022-11-21T03:31:54.446Z,17.00
2022-11-21T03:32:54.366Z,16.20
2022-11-21T03:33:54.351Z,14.30
2022-11-21T03:34:54.371Z,16.70
2022-11-21T03:35:54.340Z,15.00
2022-11-21T03:36:54.301Z,17.00
2022-11-21T03:37:54.371Z,15.30
2022-11-21T03:38:54.295Z,14.70
2022-11-21T03:39:54.290Z,15.10
2022-11-21T03:40:54.344Z,14.80
2022-11-21T03:41:54.315Z,14.70
2022-11-21T03:42:54.236Z,14.50
2022-11-21T03:43:54.238Z,15.70
2022-11-21T03:44:55.082Z,14.80
2022-11-21T03:45:54.221Z,14.80
2022-11-21T03:46:54.204Z,14.70
2022-11-21T03:47:54.294Z,16.30
2022-11-21T03:48:54.191Z,14.40
2022-11-21T03:49:54.176Z,14.80
2022-11-21T03:50:54.206Z,14.30
2022-11-21T03:51:54.151Z,14.00
2022-11-21T03:52:54.134Z,14.40
2022-11-21T03:53:54.192Z,14.50
2022-11-21T03:54:54.210Z,14.30
2022-11-21T03:55:54.149Z,13.90
2022-11-21T03:56:54.085Z,14.20
2022-11-21T03:57:54.087Z,15.00
2022-11-21T03:58:54.085Z,14.50
2022-11-21T03:59:54.118Z,13.80
2022-11-21T04:00:54.109Z,13.20
2022-11-21T04:01:54.593Z,13.50
2022-11-21T04:02:54.135Z,13.60
2022-11-21T04:03:54.075Z,12.90
2022-11-21T04:04:54.003Z,13.80
2022-11-21T04:05:54.209Z,13.80
2022-11-21T04:06:54.132Z,13.80
2022-11-21T04:07:54.075Z,12.70
2022-11-21T04:08:54.012Z,13.60
2022-11-21T04:09:54.033Z,12.50
2022-11-21T04:10:54.069Z,13.00
2022-11-21T04:11:53.940Z,13.00
2022-11-21T04:12:54.114Z,13.10
2022-11-21T04:13:53.933Z,12.40
2022-11-21T04:14:53.962Z,12.80
2022-11-21T04:15:53.915Z,12.90
2022-11-21T04:16:53.882Z,12.80
2022-11-21T04:17:53.851Z,12.10
2022-11-21T04:18:53.896Z,12.70
2022-11-21T04:19:53.882Z,12.30
2022-11-21T04:20:53.894Z,12.80
2022-11-21T04:21:53.835Z,12.90
2022-11-21T04:22:53.812Z,12.30
2022-11-21T04:23:53.831Z,12.60
2022-11-21T04:24:53.804Z,11.10
2022-11-21T04:25:53.779Z,12.40
2022-11-21T04:26:54.573Z,12.30
2022-11-21T04:27:53.758Z,12.30
2022-11-21T04:28:53.759Z,12.60
2022-11-21T04:29:53.754Z,12.10
2022-11-21T04:30:55.235Z,12.50
2022-11-21T04:31:53.824Z,13.20
2022-11-21T04:32:53.705Z,12.40
2022-11-21T04:33:53.786Z,12.40
2022-11-21T04:34:53.744Z,12.60
2022-11-21T04:35:53.735Z,12.90
2022-11-21T04:36:53.805Z,12.50
2022-11-21T04:37:53.643Z,13.00
2022-11-21T04:38:53.654Z,13.50
2022-11-21T04:39:53.617Z,12.90
2022-11-21T04:40:53.659Z,13.50
2022-11-21T04:41:53.632Z,13.10
2022-11-21T04:42:53.646Z,12.60
2022-11-21T04:43:53.604Z,13.00
2022-11-21T04:44:53.570Z,13.30
2022-11-21T04:45:53.553Z,13.40
2022-11-21T04:46:53.560Z,13.90
2022-11-21T04:47:53.528Z,14.00
2022-11-21T04:48:53.616Z,13.60
2022-11-21T04:49:53.556Z,14.30
2022-11-21T04:50:53.528Z,14.60
2022-11-21T04:51:53.497Z,13.90
2022-11-21T04:52:53.488Z,14.40
2022-11-21T04:53:53.496Z,15.40
2022-11-21T04:54:53.545Z,14.70
2022-11-21T04:55:53.438Z,15.10
2022-11-21T04:56:53.464Z,15.40
2022-11-21T04:57:53.445Z,14.80
2022-11-21T04:58:53.475Z,15.20
2022-11-21T04:59:53.410Z,14.70
2022-11-21T05:00:53.446Z,15.00
2022-11-21T05:01:53.389Z,15.10
2022-11-21T05:02:53.383Z,15.00
2022-11-21T05:03:53.386Z,14.70
2022-11-21T05:04:53.372Z,15.00
2022-11-21T05:05:53.336Z,15.50
2022-11-21T05:06:53.337Z,15.70
2022-11-21T05:07:53.322Z,15.60
2022-11-21T05:08:54.285Z,15.20
2022-11-21T05:09:53.338Z,15.10
2022-11-21T05:10:53.336Z,15.50
2022-11-21T05:11:53.553Z,16.20
2022-11-21T05:12:53.310Z,15.60
2022-11-21T05:13:53.240Z,15.20
2022-11-21T05:14:53.332Z,15.20
2022-11-21T05:15:53.217Z,15.40
2022-11-21T05:16:53.257Z,16.60
2022-11-21T05:17:53.279Z,15.10
2022-11-21T05:18:53.201Z,16.40
2022-11-21T05:19:53.246Z,15.30
2022-11-21T05:20:53.448Z,15.70
2022-11-21T05:21:53.238Z,15.60
2022-11-21T05:22:53.157Z,18.30
2022-11-21T05:23:53.219Z,17.80
2022-11-21T05:24:53.133Z,17.20
2022-11-21T05:25:53.154Z,17.70
2022-11-21T05:26:53.145Z,18.30
2022-11-21T05:27:53.126Z,17.60
2022-11-21T05:28:53.106Z,17.50
2022-11-21T05:29:53.900Z,19.90
2022-11-21T05:30:53.173Z,19.30
2022-11-21T05:31:53.043Z,18.80
2022-11-21T05:32:53.090Z,19.20
2022-11-21T05:33:53.040Z,20.30
2022-11-21T05:34:53.089Z,20.00
2022-11-21T05:35:53.019Z,19.70
2022-11-21T05:36:53.009Z,19.10
2022-11-21T05:37:53.071Z,19.90
2022-11-21T05:38:52.983Z,20.30
2022-11-21T05:39:52.991Z,20.90
2022-11-21T05:40:53.014Z,19.40
2022-11-21T05:41:56.173Z,20.40
2022-11-21T05:42:52.951Z,20.10
2022-11-21T05:43:52.928Z,19.80
2022-11-21T05:44:53.004Z,20.80
2022-11-21T05:45:52.894Z,21.00
2022-11-21T05:46:52.910Z,21.30
2022-11-21T05:47:52.880Z,21.80
2022-11-21T05:48:52.926Z,21.10
2022-11-21T05:49:53.168Z,20.80
2022-11-21T05:50:52.852Z,22.20
2022-11-21T05:51:52.947Z,21.50
2022-11-21T05:52:52.868Z,22.30
2022-11-21T05:53:52.813Z,21.50
2022-11-21T05:54:53.655Z,21.10
2022-11-21T05:55:52.787Z,21.60
2022-11-21T05:56:52.968Z,22.10
2022-11-21T05:57:52.979Z,22.20
2022-11-21T05:58:52.744Z,22.60
2022-11-21T05:59:52.777Z,23.00
2022-11-21T06:00:56.980Z,23.10
2022-11-21T06:01:52.720Z,23.20
2022-11-21T06:02:52.821Z,23.80
2022-11-21T06:03:52.796Z,24.10
2022-11-21T06:04:52.751Z,23.60
2022-11-21T06:05:52.715Z,24.30
2022-11-21T06:06:53.694Z,23.80
2022-11-21T06:07:52.690Z,24.50
2022-11-21T06:08:52.727Z,24.80
2022-11-21T06:09:52.625Z,26.70
2022-11-21T06:10:52.716Z,26.40
2022-11-21T06:11:52.783Z,26.20
2022-11-21T06:12:52.608Z,27.20
2022-11-21T06:13:52.781Z,26.50
2022-11-21T06:14:52.593Z,27.00
2022-11-21T06:15:52.567Z,26.40
2022-11-21T06:16:52.761Z,27.30
2022-11-21T06:17:53.552Z,27.40
2022-11-21T06:18:56.882Z,27.00
2022-11-21T06:19:52.609Z,26.60
2022-11-21T06:20:52.579Z,27.90
2022-11-21T06:21:52.824Z,26.90
2022-11-21T06:22:52.497Z,26.10
2022-11-21T06:23:53.812Z,27.10
2022-11-21T06:24:52.527Z,27.60
2022-11-21T06:25:53.610Z,28.60
2022-11-21T06:26:52.458Z,27.90
2022-11-21T06:27:52.486Z,27.00
2022-11-21T06:28:59.676Z,28.40
2022-11-21T06:30:00.242Z,26.00
2022-11-21T06:30:58.546Z,27.00
2022-11-21T06:31:52.394Z,26.90
2022-11-21T06:32:52.492Z,27.40
2022-11-21T06:33:52.364Z,27.80
2022-11-21T06:34:52.392Z,26.90
2022-11-21T06:35:52.340Z,26.60
2022-11-21T06:36:52.406Z,25.80
2022-11-21T06:37:53.832Z,25.20
2022-11-21T06:38:52.329Z,25.90
2022-11-21T06:39:52.300Z,25.80
2022-11-21T06:40:52.337Z,27.30
2022-11-21T06:41:52.398Z,26.40
2022-11-21T06:42:52.359Z,26.30
2022-11-21T06:43:52.265Z,25.80
2022-11-21T06:44:52.383Z,25.20
2022-11-21T06:45:52.334Z,26.40
2022-11-21T06:46:52.340Z,27.20
2022-11-21T06:47:53.200Z,26.10
2022-11-21T06:48:52.291Z,29.40
2022-11-21T06:49:52.210Z,26.10
2022-11-21T06:50:52.231Z,25.70
2022-11-21T06:51:52.182Z,25.50
2022-11-21T06:52:52.190Z,25.90
2022-11-21T06:53:52.211Z,24.50
2022-11-21T06:54:52.152Z,26.00
2022-11-21T06:55:52.143Z,25.80
2022-11-21T06:56:52.138Z,24.90
2022-11-21T06:57:52.109Z,25.30
2022-11-21T06:58:52.117Z,27.60
2022-11-21T06:59:52.180Z,26.30
2022-11-21T07:00:52.162Z,25.90
2022-11-21T07:01:52.113Z,26.80
2022-11-21T07:02:52.087Z,27.30
2022-11-21T07:03:52.058Z,26.20
2022-11-21T07:04:52.096Z,26.00
2022-11-21T07:05:52.055Z,30.20
2022-11-21T07:06:52.049Z,28.10
2022-11-21T07:07:52.017Z,28.30
2022-11-21T07:09:05.065Z,28.00
2022-11-21T07:09:52.095Z,28.20
2022-11-21T07:11:17.744Z,26.20
2022-11-21T07:11:54.028Z,27.20
2022-11-21T07:12:51.968Z,25.20
2022-11-21T07:13:51.984Z,26.30
2022-11-21T07:14:51.943Z,26.90
2022-11-21T07:15:51.976Z,27.60
2022-11-21T07:16:51.970Z,27.00
2022-11-21T07:17:51.905Z,28.10
2022-11-21T07:18:51.984Z,26.60
2022-11-21T07:19:51.917Z,27.10
2022-11-21T07:20:51.923Z,26.80
2022-11-21T07:21:53.530Z,26.00
2022-11-21T07:22:52.705Z,28.30
2022-11-21T07:23:51.919Z,27.70
2022-11-21T07:24:52.294Z,28.10
2022-11-21T07:25:51.809Z,27.20
2022-11-21T07:26:51.879Z,27.00
2022-11-21T07:27:51.775Z,27.50
2022-11-21T07:28:51.813Z,26.30
2022-11-21T07:29:51.764Z,26.90
2022-11-21T07:30:51.816Z,27.10
2022-11-21T07:31:51.800Z,27.30
2022-11-21T07:32:51.730Z,27.80
2022-11-21T07:33:51.744Z,27.70
2022-11-21T07:34:51.773Z,28.10
2022-11-21T07:35:51.732Z,27.80
2022-11-21T07:36:51.681Z,28.00
2022-11-21T07:37:51.699Z,30.60
2022-11-21T07:38:51.717Z,31.20
2022-11-21T07:39:51.650Z,29.80
2022-11-21T07:40:51.662Z,30.20
2022-11-21T07:41:51.695Z,30.00
2022-11-21T07:42:51.742Z,31.40
2022-11-21T07:43:51.671Z,32.10
2022-11-21T07:44:51.613Z,31.70
2022-11-21T07:45:51.604Z,30.90
2022-11-21T07:46:51.594Z,29.50
2022-11-21T07:47:51.663Z,29.90
2022-11-21T07:48:51.595Z,28.90
2022-11-21T07:49:51.641Z,28.20
2022-11-21T07:50:51.550Z,27.50
2022-11-21T07:51:51.515Z,28.70
2022-11-21T07:52:52.220Z,28.20
2022-11-21T07:53:51.521Z,27.50
2022-11-21T07:54:51.540Z,28.60
2022-11-21T07:55:51.485Z,28.40
2022-11-21T07:56:51.499Z,29.20
2022-11-21T07:57:51.534Z,28.80
2022-11-21T07:58:51.550Z,29.30
2022-11-21T07:59:51.428Z,29.60
2022-11-21T08:00:51.505Z,28.90
2022-11-21T08:01:51.477Z,28.90
2022-11-21T08:02:51.470Z,29.20
2022-11-21T08:03:51.473Z,28.80
2022-11-21T08:04:51.458Z,29.40
2022-11-21T08:05:51.383Z,29.40
2022-11-21T08:06:51.362Z,31.40
2022-11-21T08:07:51.412Z,30.20
2022-11-21T08:08:51.390Z,30.80
2022-11-21T08:09:51.332Z,29.30
2022-11-21T08:10:51.349Z,30.20
2022-11-21T08:11:52.217Z,31.00
2022-11-21T08:12:51.450Z,31.00
2022-11-21T08:13:51.293Z,30.90
2022-11-21T08:14:51.318Z,31.20
2022-11-21T08:15:51.286Z,30.00
2022-11-21T08:16:51.288Z,30.60
2022-11-21T08:17:51.266Z,29.20
2022-11-21T08:18:51.265Z,29.10
2022-11-21T08:19:51.281Z,29.20
2022-11-21T08:20:51.304Z,29.80
2022-11-21T08:21:51.223Z,28.30
2022-11-21T08:22:51.191Z,29.50
2022-11-21T08:23:51.223Z,29.90
2022-11-21T08:24:51.169Z,30.00
2022-11-21T08:25:51.202Z,30.70
2022-11-21T08:26:51.193Z,28.90
2022-11-21T08:27:51.200Z,28.50
2022-11-21T08:28:54.382Z,29.40
2022-11-21T08:29:51.119Z,28.60
2022-11-21T08:30:52.292Z,29.00
2022-11-21T08:31:51.119Z,29.70
2022-11-21T08:32:51.167Z,29.40
2022-11-21T08:33:51.219Z,28.90
2022-11-21T08:34:51.321Z,29.10
2022-11-21T08:35:51.780Z,28.60
2022-11-21T08:36:51.105Z,28.70
2022-11-21T08:37:51.329Z,29.50
2022-11-21T08:38:52.157Z,28.50
2022-11-21T08:39:51.179Z,30.00
2022-11-21T08:40:51.108Z,28.90
2022-11-21T08:41:51.195Z,29.10
2022-11-21T08:42:50.976Z,29.10
2022-11-21T08:43:51.778Z,28.20
2022-11-21T08:44:51.004Z,29.20
2022-11-21T08:45:51.002Z,28.70
2022-11-21T08:46:51.242Z,28.70
2022-11-21T08:47:50.995Z,29.20
2022-11-21T08:48:50.902Z,29.50
2022-11-21T08:49:50.885Z,28.00
2022-11-21T08:50:50.962Z,28.60
2022-11-21T08:51:50.986Z,28.50
2022-11-21T08:52:50.886Z,28.90
2022-11-21T08:53:50.885Z,29.30
2022-11-21T08:54:50.836Z,28.70
2022-11-21T08:55:50.863Z,29.00
2022-11-21T08:56:50.832Z,29.70
2022-11-21T08:57:50.814Z,30.00
2022-11-21T08:58:50.840Z,28.40
2022-11-21T08:59:50.798Z,28.30
2022-11-21T09:00:50.797Z,29.20
2022-11-21T09:01:51.715Z,29.10
2022-11-21T09:02:50.725Z,28.50
2022-11-21T09:03:50.838Z,28.50
2022-11-21T09:04:50.764Z,28.50
2022-11-21T09:05:50.765Z,27.70
2022-11-21T09:06:51.752Z,29.20
2022-11-21T09:07:50.763Z,27.00
2022-11-21T09:08:50.707Z,26.90
2022-11-21T09:09:50.755Z,26.30
2022-11-21T09:10:50.692Z,25.90
2022-11-21T09:11:50.684Z,26.20
2022-11-21T09:12:51.134Z,26.40
2022-11-21T09:13:50.619Z,26.40
2022-11-21T09:14:50.625Z,25.80
2022-11-21T09:15:50.706Z,26.20
2022-11-21T09:16:50.575Z,25.90
2022-11-21T09:17:50.598Z,25.00
2022-11-21T09:18:50.560Z,25.50
2022-11-21T09:19:50.608Z,24.60
2022-11-21T09:20:50.606Z,24.10
2022-11-21T09:21:50.591Z,24.40
2022-11-21T09:22:50.559Z,24.90
2022-11-21T09:23:50.563Z,24.70
2022-11-21T09:24:50.598Z,24.30
2022-11-21T09:25:50.563Z,24.50
2022-11-21T09:26:50.507Z,24.20
2022-11-21T09:27:50.519Z,24.00
2022-11-21T09:28:50.456Z,24.40
2022-11-21T09:29:54.017Z,22.90
2022-11-21T09:30:50.538Z,24.50
2022-11-21T09:31:50.493Z,23.40
2022-11-21T09:32:50.601Z,24.50
2022-11-21T09:33:54.795Z,24.70
2022-11-21T09:34:50.382Z,24.40
2022-11-21T09:35:50.432Z,23.70
2022-11-21T09:36:50.413Z,23.70
2022-11-21T09:37:50.359Z,23.60
2022-11-21T09:38:51.158Z,23.50
2022-11-21T09:39:50.366Z,23.50
2022-11-21T09:40:50.309Z,23.60
2022-11-21T09:41:50.435Z,24.40
2022-11-21T09:42:50.338Z,23.90
2022-11-21T09:43:55.554Z,23.60
2022-11-21T09:44:50.265Z,23.50
2022-11-21T09:45:50.329Z,23.50
2022-11-21T09:46:50.237Z,24.10
2022-11-21T09:47:50.296Z,23.40
2022-11-21T09:48:51.694Z,22.50
2022-11-21T09:49:50.255Z,22.40
2022-11-21T09:50:53.797Z,22.90
2022-11-21T09:51:50.256Z,22.60
2022-11-21T09:52:50.194Z,21.60
2022-11-21T09:53:50.237Z,22.20
2022-11-21T09:54:50.327Z,23.60
2022-11-21T09:55:50.227Z,20.40
2022-11-21T09:56:50.212Z,21.40
2022-11-21T09:57:50.167Z,21.30
2022-11-21T09:58:50.188Z,21.40
2022-11-21T09:59:50.394Z,21.30
2022-11-21T10:00:50.213Z,21.40
2022-11-21T10:01:50.371Z,20.90
2022-11-21T10:02:50.158Z,21.50
2022-11-21T10:03:50.537Z,20.80
2022-11-21T10:04:50.104Z,20.90
2022-11-21T10:05:50.202Z,22.30
2022-11-21T10:06:50.206Z,22.10
2022-11-21T10:07:50.173Z,20.90
2022-11-21T10:08:50.039Z,21.80
2022-11-21T10:09:50.037Z,21.00
2022-11-21T10:10:50.575Z,20.10
2022-11-21T10:11:50.079Z,20.60
2022-11-21T10:12:50.073Z,20.00
2022-11-21T10:13:49.985Z,21.10
2022-11-21T10:14:50.786Z,20.30
2022-11-21T10:15:50.675Z,20.50
2022-11-21T10:16:50.026Z,21.10
2022-11-21T10:17:50.137Z,20.80
2022-11-21T10:18:50.005Z,20.70
2022-11-21T10:19:50.005Z,19.90
2022-11-21T10:20:49.907Z,20.20
2022-11-21T10:21:50.472Z,19.70
2022-11-21T10:22:49.861Z,20.30
2022-11-21T10:23:50.859Z,19.20
2022-11-21T10:24:49.886Z,19.40
2022-11-21T10:25:49.934Z,19.60
2022-11-21T10:26:52.179Z,20.40
2022-11-21T10:27:49.882Z,19.80
2022-11-21T10:28:49.835Z,21.10
2022-11-21T10:29:49.802Z,20.70
2022-11-21T10:30:49.766Z,20.40
2022-11-21T10:31:49.767Z,21.00
2022-11-21T10:32:49.794Z,21.40
2022-11-21T10:33:49.746Z,21.40
2022-11-21T10:34:49.841Z,20.70
2022-11-21T10:35:50.587Z,21.00
2022-11-21T10:36:49.761Z,21.50
2022-11-21T10:37:49.771Z,21.90
2022-11-21T10:38:49.770Z,21.60
2022-11-21T10:39:49.786Z,21.90
2022-11-21T10:40:49.690Z,22.00
2022-11-21T10:41:49.702Z,21.50
2022-11-21T10:42:49.643Z,21.10
2022-11-21T10:43:49.691Z,22.00
2022-11-21T10:44:49.636Z,21.90
2022-11-21T10:45:49.730Z,21.40
2022-11-21T10:46:49.580Z,21.30
2022-11-21T10:47:49.590Z,20.20
2022-11-21T10:48:49.652Z,21.40
2022-11-21T10:49:49.557Z,20.60
2022-11-21T10:50:49.938Z,20.70
2022-11-21T10:51:49.598Z,21.10
2022-11-21T10:52:49.575Z,20.40
2022-11-21T10:53:49.651Z,19.70
2022-11-21T10:54:49.807Z,19.90
2022-11-21T10:55:49.788Z,19.30
2022-11-21T10:56:49.533Z,17.80
2022-11-21T10:57:49.532Z,18.50
2022-11-21T10:58:49.475Z,17.20
2022-11-21T10:59:49.662Z,16.70
2022-11-21T11:00:49.580Z,17.50
2022-11-21T11:01:49.449Z,17.60
2022-11-21T11:02:49.415Z,18.20
2022-11-21T11:04:06.925Z,17.00
2022-11-21T11:04:52.392Z,16.50
2022-11-21T11:05:49.388Z,15.90
2022-11-21T11:06:49.366Z,16.50
2022-11-21T11:07:49.581Z,16.80
2022-11-21T11:08:49.391Z,17.40
2022-11-21T11:09:49.434Z,16.30
2022-11-21T11:10:49.324Z,16.60
2022-11-21T11:11:49.316Z,15.90
2022-11-21T11:12:49.331Z,15.60
2022-11-21T11:13:51.082Z,16.40
2022-11-21T11:14:49.316Z,16.60
2022-11-21T11:15:49.320Z,17.10
2022-11-21T11:16:49.249Z,17.10
2022-11-21T11:17:49.311Z,17.40
2022-11-21T11:18:49.339Z,17.90
2022-11-21T11:19:49.295Z,17.60
2022-11-21T11:20:49.320Z,17.60
2022-11-21T11:21:49.543Z,16.30
2022-11-21T11:22:49.184Z,16.50
2022-11-21T11:23:49.218Z,16.70
2022-11-21T11:24:49.218Z,16.40
2022-11-21T11:25:49.212Z,15.50
2022-11-21T11:26:49.450Z,14.70
2022-11-21T11:27:49.481Z,15.60
2022-11-21T11:28:49.138Z,14.90
2022-11-21T11:29:49.138Z,16.10
2022-11-21T11:30:49.134Z,14.90
2022-11-21T11:31:49.186Z,14.10
2022-11-21T11:32:49.085Z,14.00
2022-11-21T11:33:49.328Z,13.70
2022-11-21T11:34:49.105Z,13.50
2022-11-21T11:35:49.064Z,13.80
2022-11-21T11:36:49.095Z,13.80
2022-11-21T11:37:49.075Z,13.90
2022-11-21T11:38:49.047Z,13.90
2022-11-21T11:39:49.066Z,13.40
2022-11-21T11:40:49.001Z,13.60
2022-11-21T11:41:48.986Z,13.00
2022-11-21T11:42:49.003Z,12.90
2022-11-21T11:43:49.031Z,12.80
2022-11-21T11:44:48.943Z,12.80
2022-11-21T11:45:48.997Z,13.40
2022-11-21T11:46:48.939Z,13.60
2022-11-21T11:47:54.439Z,13.70
2022-11-21T11:49:17.116Z,13.00
2022-11-21T11:49:49.185Z,13.10
2022-11-21T11:50:48.928Z,13.70
2022-11-21T11:51:48.884Z,14.10
2022-11-21T11:52:48.938Z,13.20
2022-11-21T11:53:48.921Z,13.00
2022-11-21T11:54:48.833Z,13.30
2022-11-21T11:55:48.835Z,13.80
2022-11-21T11:56:48.814Z,13.60
2022-11-21T11:57:48.860Z,13.60
2022-11-21T11:58:49.543Z,12.70
2022-11-21T11:59:48.858Z,12.30
2022-11-21T12:00:49.637Z,11.40
2022-11-21T12:01:49.913Z,11.70
2022-11-21T12:02:48.754Z,11.70
2022-11-21T12:03:52.091Z,11.40
2022-11-21T12:04:48.783Z,11.50
2022-11-21T12:05:48.734Z,11.90
2022-11-21T12:08:49.722Z,11.70
2022-11-21T12:09:48.990Z,11.60
2022-11-21T12:10:49.675Z,10.90
2022-11-21T12:11:48.634Z,10.70
2022-11-21T12:12:49.577Z,10.50
2022-11-21T12:13:48.627Z,11.20
2022-11-21T12:14:48.618Z,11.60
2022-11-21T12:15:48.696Z,11.30
2022-11-21T12:16:48.640Z,11.10
2022-11-21T12:17:48.564Z,10.60
2022-11-21T12:18:48.607Z,10.20
2022-11-21T12:19:48.597Z,10.10
2022-11-21T12:20:48.544Z,9.70
2022-11-21T12:21:48.561Z,10.10
2022-11-21T12:22:48.520Z,9.50
2022-11-21T12:23:48.499Z,9.20
2022-11-21T12:24:48.525Z,9.70
2022-11-21T12:25:48.486Z,9.20
2022-11-21T12:26:48.472Z,9.70
2022-11-21T12:27:48.517Z,9.10
2022-11-21T12:28:48.532Z,8.80
2022-11-21T12:29:49.123Z,8.60
2022-11-21T12:30:48.558Z,9.30
2022-11-21T12:31:48.425Z,9.30
2022-11-21T12:32:48.456Z,9.10
2022-11-21T12:33:48.404Z,9.30
2022-11-21T12:34:48.514Z,9.30
2022-11-21T12:35:48.383Z,9.20
2022-11-21T12:36:55.709Z,9.10
2022-11-21T12:37:48.373Z,9.10
2022-11-21T12:38:48.384Z,9.70
2022-11-21T12:39:48.361Z,9.00
2022-11-21T12:40:48.442Z,9.50
2022-11-21T12:41:48.358Z,9.40
2022-11-21T12:42:48.320Z,8.70
2022-11-21T12:43:53.099Z,8.80
2022-11-21T12:44:48.320Z,9.00
2022-11-21T12:45:48.255Z,8.30
2022-11-21T12:46:48.327Z,8.60
2022-11-21T12:47:48.244Z,8.70
2022-11-21T12:48:48.253Z,8.50
2022-11-21T12:49:54.396Z,8.40
2022-11-21T12:50:49.366Z,8.50
2022-11-21T12:51:49.157Z,9.00
2022-11-21T12:53:38.588Z,8.30
2022-11-21T12:53:48.193Z,8.70
2022-11-21T12:55:05.041Z,8.40
2022-11-21T12:55:48.141Z,9.20